sensor_id;sensor_type;location;lat;lon;timestamp;P1;durP1;ratioP1;P2;durP2;ratioP2
2972;SDS011;1496;51.404;7.232;2023-04-15T00:00:46;12.70;;;7.17;;
2972;SDS011;1496;51.404;7.232;2023-04-15T00:03:13;16.13;;;8.17;;
2972;SDS011;1496;51.404;7.232;2023-04-15T00:05:41;10.97;;;7.93;;
2972;SDS011;1496;51.404;7.232;2023-04-15T00:08:10;13.93;;;7.47;;
2972;SDS011;1496;51.404;7.232;2023-04-15T00:10:37;10.03;;;7.70;;
2972;SDS011;1496;51.404;7.232;2023-04-15T00:13:03;8.77;;;7.10;;
2972;SDS011;1496;51.404;7.232;2023-04-15T00:15:30;15.87;;;8.10;;
2972;SDS011;1496;51.404;7.232;2023-04-15T00:17:58;13.10;;;7.50;;
2972;SDS011;1496;51.404;7.232;2023-04-15T00:20:25;8.63;;;6.80;;
2972;SDS011;1496;51.404;7.232;2023-04-15T00:22:53;9.93;;;7.03;;
2972;SDS011;1496;51.404;7.232;2023-04-15T00:25:20;11.90;;;7.30;;
2972;SDS011;1496;51.404;7.232;2023-04-15T00:27:47;10.17;;;7.37;;
2972;SDS011;1496;51.404;7.232;2023-04-15T00:30:15;13.60;;;7.40;;
2972;SDS011;1496;51.404;7.232;2023-04-15T00:32:42;14.17;;;7.70;;
2972;SDS011;1496;51.404;7.232;2023-04-15T00:35:09;13.83;;;8.70;;
2972;SDS011;1496;51.404;7.232;2023-04-15T00:37:38;12.73;;;6.87;;
2972;SDS011;1496;51.404;7.232;2023-04-15T00:40:04;14.97;;;7.20;;
2972;SDS011;1496;51.404;7.232;2023-04-15T00:42:33;9.50;;;5.90;;
2972;SDS011;1496;51.404;7.232;2023-04-15T00:45:01;10.80;;;7.27;;
2972;SDS011;1496;51.404;7.232;2023-04-15T00:47:28;10.27;;;6.30;;
2972;SDS011;1496;51.404;7.232;2023-04-15T00:49:56;11.70;;;5.70;;
2972;SDS011;1496;51.404;7.232;2023-04-15T00:52:23;11.77;;;7.00;;
2972;SDS011;1496;51.404;7.232;2023-04-15T00:54:52;13.77;;;7.60;;
2972;SDS011;1496;51.404;7.232;2023-04-15T00:57:20;11.30;;;6.90;;
2972;SDS011;1496;51.404;7.232;2023-04-15T00:59:48;12.70;;;7.30;;
2972;SDS011;1496;51.404;7.232;2023-04-15T01:02:16;16.50;;;8.63;;
2972;SDS011;1496;51.404;7.232;2023-04-15T01:04:42;12.50;;;8.53;;
2972;SDS011;1496;51.404;7.232;2023-04-15T01:07:08;12.27;;;9.53;;
2972;SDS011;1496;51.404;7.232;2023-04-15T01:09:36;12.40;;;8.73;;
2972;SDS011;1496;51.404;7.232;2023-04-15T01:12:03;13.30;;;8.43;;
2972;SDS011;1496;51.404;7.232;2023-04-15T01:14:31;14.27;;;9.43;;
2972;SDS011;1496;51.404;7.232;2023-04-15T01:16:59;15.10;;;8.80;;
2972;SDS011;1496;51.404;7.232;2023-04-15T01:19:28;14.20;;;7.50;;
2972;SDS011;1496;51.404;7.232;2023-04-15T01:21:57;11.77;;;7.53;;
2972;SDS011;1496;51.404;7.232;2023-04-15T01:24:25;12.20;;;6.80;;
2972;SDS011;1496;51.404;7.232;2023-04-15T01:26:55;15.87;;;7.80;;
2972;SDS011;1496;51.404;7.232;2023-04-15T01:29:23;14.97;;;8.73;;
2972;SDS011;1496;51.404;7.232;2023-04-15T01:31:54;16.40;;;8.20;;
2972;SDS011;1496;51.404;7.232;2023-04-15T01:34:25;12.10;;;8.57;;
2972;SDS011;1496;51.404;7.232;2023-04-15T01:36:53;17.13;;;8.90;;
2972;SDS011;1496;51.404;7.232;2023-04-15T01:39:21;12.33;;;8.37;;
2972;SDS011;1496;51.404;7.232;2023-04-15T01:41:48;16.83;;;9.40;;
2972;SDS011;1496;51.404;7.232;2023-04-15T01:44:18;14.27;;;8.70;;
2972;SDS011;1496;51.404;7.232;2023-04-15T01:46:48;14.23;;;9.40;;
2972;SDS011;1496;51.404;7.232;2023-04-15T01:49:22;14.33;;;9.23;;
2972;SDS011;1496;51.404;7.232;2023-04-15T01:51:49;15.43;;;9.20;;
2972;SDS011;1496;51.404;7.232;2023-04-15T01:54:16;15.20;;;8.80;;
2972;SDS011;1496;51.404;7.232;2023-04-15T01:56:44;17.77;;;8.53;;
2972;SDS011;1496;51.404;7.232;2023-04-15T01:59:13;14.60;;;8.53;;
2972;SDS011;1496;51.404;7.232;2023-04-15T02:01:40;14.63;;;9.17;;
2972;SDS011;1496;51.404;7.232;2023-04-15T02:04:09;16.60;;;10.17;;
2972;SDS011;1496;51.404;7.232;2023-04-15T02:06:44;16.43;;;8.83;;
2972;SDS011;1496;51.404;7.232;2023-04-15T02:09:13;16.93;;;9.00;;
2972;SDS011;1496;51.404;7.232;2023-04-15T02:11:41;14.40;;;9.43;;
2972;SDS011;1496;51.404;7.232;2023-04-15T02:14:07;14.63;;;9.70;;
2972;SDS011;1496;51.404;7.232;2023-04-15T02:16:35;18.53;;;9.70;;
2972;SDS011;1496;51.404;7.232;2023-04-15T02:19:01;12.10;;;9.20;;
2972;SDS011;1496;51.404;7.232;2023-04-15T02:21:28;16.87;;;9.63;;
2972;SDS011;1496;51.404;7.232;2023-04-15T02:23:55;14.83;;;9.27;;
2972;SDS011;1496;51.404;7.232;2023-04-15T02:26:23;14.20;;;9.47;;
2972;SDS011;1496;51.404;7.232;2023-04-15T02:28:53;14.30;;;8.57;;
2972;SDS011;1496;51.404;7.232;2023-04-15T02:31:21;16.60;;;9.70;;
2972;SDS011;1496;51.404;7.232;2023-04-15T02:33:47;16.90;;;9.70;;
2972;SDS011;1496;51.404;7.232;2023-04-15T02:36:16;14.03;;;9.50;;
2972;SDS011;1496;51.404;7.232;2023-04-15T02:38:44;14.30;;;7.50;;
2972;SDS011;1496;51.404;7.232;2023-04-15T02:41:13;12.37;;;7.50;;
2972;SDS011;1496;51.404;7.232;2023-04-15T02:43:42;14.17;;;8.33;;
2972;SDS011;1496;51.404;7.232;2023-04-15T02:46:11;13.00;;;7.83;;
2972;SDS011;1496;51.404;7.232;2023-04-15T02:48:41;15.50;;;8.30;;
2972;SDS011;1496;51.404;7.232;2023-04-15T02:51:14;13.00;;;9.30;;
2972;SDS011;1496;51.404;7.232;2023-04-15T02:53:46;13.10;;;8.47;;
2972;SDS011;1496;51.404;7.232;2023-04-15T02:56:14;15.73;;;8.90;;
2972;SDS011;1496;51.404;7.232;2023-04-15T02:58:42;10.40;;;8.47;;
2972;SDS011;1496;51.404;7.232;2023-04-15T03:01:09;13.63;;;9.60;;
2972;SDS011;1496;51.404;7.232;2023-04-15T03:03:37;16.10;;;9.20;;
2972;SDS011;1496;51.404;7.232;2023-04-15T03:06:03;15.33;;;9.90;;
2972;SDS011;1496;51.404;7.232;2023-04-15T03:08:32;17.40;;;9.63;;
2972;SDS011;1496;51.404;7.232;2023-04-15T03:11:03;11.60;;;8.13;;
2972;SDS011;1496;51.404;7.232;2023-04-15T03:13:32;13.00;;;8.57;;
2972;SDS011;1496;51.404;7.232;2023-04-15T03:16:05;10.73;;;8.97;;
2972;SDS011;1496;51.404;7.232;2023-04-15T03:18:34;15.40;;;9.33;;
2972;SDS011;1496;51.404;7.232;2023-04-15T03:21:03;14.53;;;8.67;;
2972;SDS011;1496;51.404;7.232;2023-04-15T03:23:35;12.10;;;9.03;;
2972;SDS011;1496;51.404;7.232;2023-04-15T03:26:02;17.43;;;9.47;;
2972;SDS011;1496;51.404;7.232;2023-04-15T03:28:31;14.17;;;9.53;;
2972;SDS011;1496;51.404;7.232;2023-04-15T03:30:59;11.70;;;8.43;;
2972;SDS011;1496;51.404;7.232;2023-04-15T03:33:27;16.73;;;9.23;;
2972;SDS011;1496;51.404;7.232;2023-04-15T03:35:54;14.40;;;9.80;;
2972;SDS011;1496;51.404;7.232;2023-04-15T03:38:21;15.20;;;9.80;;
2972;SDS011;1496;51.404;7.232;2023-04-15T03:40:47;17.00;;;8.80;;
2972;SDS011;1496;51.404;7.232;2023-04-15T03:43:14;14.70;;;10.17;;
2972;SDS011;1496;51.404;7.232;2023-04-15T03:45:41;15.87;;;10.00;;
2972;SDS011;1496;51.404;7.232;2023-04-15T03:48:09;10.37;;;8.70;;
2972;SDS011;1496;51.404;7.232;2023-04-15T03:50:37;13.40;;;9.30;;
2972;SDS011;1496;51.404;7.232;2023-04-15T03:53:03;16.83;;;9.10;;
2972;SDS011;1496;51.404;7.232;2023-04-15T03:55:31;15.07;;;9.70;;
2972;SDS011;1496;51.404;7.232;2023-04-15T03:57:57;18.30;;;9.27;;
2972;SDS011;1496;51.404;7.232;2023-04-15T04:00:23;13.47;;;9.53;;
2972;SDS011;1496;51.404;7.232;2023-04-15T04:02:50;13.63;;;10.07;;
2972;SDS011;1496;51.404;7.232;2023-04-15T04:05:17;12.60;;;9.90;;
2972;SDS011;1496;51.404;7.232;2023-04-15T04:07:44;16.33;;;9.47;;
2972;SDS011;1496;51.404;7.232;2023-04-15T04:10:13;13.63;;;9.87;;
2972;SDS011;1496;51.404;7.232;2023-04-15T04:12:39;18.27;;;10.10;;
2972;SDS011;1496;51.404;7.232;2023-04-15T04:15:08;13.93;;;10.70;;
2972;SDS011;1496;51.404;7.232;2023-04-15T04:17:36;15.00;;;9.60;;
2972;SDS011;1496;51.404;7.232;2023-04-15T04:20:03;24.47;;;10.97;;
2972;SDS011;1496;51.404;7.232;2023-04-15T04:22:35;23.43;;;10.87;;
2972;SDS011;1496;51.404;7.232;2023-04-15T04:25:06;15.03;;;10.40;;
2972;SDS011;1496;51.404;7.232;2023-04-15T04:27:33;19.87;;;9.73;;
2972;SDS011;1496;51.404;7.232;2023-04-15T04:30:00;18.37;;;10.43;;
2972;SDS011;1496;51.404;7.232;2023-04-15T04:32:26;15.67;;;9.47;;
2972;SDS011;1496;51.404;7.232;2023-04-15T04:34:53;19.87;;;10.30;;
2972;SDS011;1496;51.404;7.232;2023-04-15T04:37:20;14.17;;;9.73;;
2972;SDS011;1496;51.404;7.232;2023-04-15T04:39:48;15.73;;;11.03;;
2972;SDS011;1496;51.404;7.232;2023-04-15T04:42:14;16.37;;;10.63;;
2972;SDS011;1496;51.404;7.232;2023-04-15T04:44:42;20.40;;;11.73;;
2972;SDS011;1496;51.404;7.232;2023-04-15T04:47:09;16.53;;;10.83;;
2972;SDS011;1496;51.404;7.232;2023-04-15T04:49:36;19.10;;;11.40;;
2972;SDS011;1496;51.404;7.232;2023-04-15T04:52:03;19.20;;;11.87;;
2972;SDS011;1496;51.404;7.232;2023-04-15T04:54:30;21.03;;;12.00;;
2972;SDS011;1496;51.404;7.232;2023-04-15T04:56:56;19.70;;;12.67;;
2972;SDS011;1496;51.404;7.232;2023-04-15T04:59:24;18.93;;;11.90;;
2972;SDS011;1496;51.404;7.232;2023-04-15T05:01:50;18.27;;;11.90;;
2972;SDS011;1496;51.404;7.232;2023-04-15T05:04:17;16.43;;;12.00;;
2972;SDS011;1496;51.404;7.232;2023-04-15T05:06:43;17.20;;;12.23;;
2972;SDS011;1496;51.404;7.232;2023-04-15T05:09:11;14.33;;;10.60;;
2972;SDS011;1496;51.404;7.232;2023-04-15T05:11:37;15.03;;;11.47;;
2972;SDS011;1496;51.404;7.232;2023-04-15T05:14:04;19.80;;;11.10;;
2972;SDS011;1496;51.404;7.232;2023-04-15T05:16:31;16.40;;;12.10;;
2972;SDS011;1496;51.404;7.232;2023-04-15T05:18:57;17.27;;;12.20;;
2972;SDS011;1496;51.404;7.232;2023-04-15T05:21:24;19.13;;;12.63;;
2972;SDS011;1496;51.404;7.232;2023-04-15T05:23:52;19.30;;;11.73;;
2972;SDS011;1496;51.404;7.232;2023-04-15T05:26:21;18.13;;;11.57;;
2972;SDS011;1496;51.404;7.232;2023-04-15T05:28:48;17.03;;;11.83;;
2972;SDS011;1496;51.404;7.232;2023-04-15T05:31:17;14.33;;;11.03;;
2972;SDS011;1496;51.404;7.232;2023-04-15T05:33:46;17.33;;;11.87;;
2972;SDS011;1496;51.404;7.232;2023-04-15T05:36:13;19.17;;;12.97;;
2972;SDS011;1496;51.404;7.232;2023-04-15T05:38:39;19.73;;;11.50;;
2972;SDS011;1496;51.404;7.232;2023-04-15T05:41:07;17.97;;;11.87;;
2972;SDS011;1496;51.404;7.232;2023-04-15T05:43:34;19.97;;;13.60;;
2972;SDS011;1496;51.404;7.232;2023-04-15T05:46:01;19.43;;;12.20;;
2972;SDS011;1496;51.404;7.232;2023-04-15T05:48:27;18.07;;;11.70;;
2972;SDS011;1496;51.404;7.232;2023-04-15T05:50:55;19.60;;;12.97;;
2972;SDS011;1496;51.404;7.232;2023-04-15T05:53:22;15.30;;;10.83;;
2972;SDS011;1496;51.404;7.232;2023-04-15T05:55:49;17.07;;;12.27;;
2972;SDS011;1496;51.404;7.232;2023-04-15T05:58:18;16.80;;;12.10;;
2972;SDS011;1496;51.404;7.232;2023-04-15T06:00:44;20.47;;;11.90;;
2972;SDS011;1496;51.404;7.232;2023-04-15T06:03:12;15.93;;;11.20;;
2972;SDS011;1496;51.404;7.232;2023-04-15T06:05:38;19.47;;;11.93;;
2972;SDS011;1496;51.404;7.232;2023-04-15T06:08:06;18.50;;;11.60;;
2972;SDS011;1496;51.404;7.232;2023-04-15T06:10:34;20.27;;;13.27;;
2972;SDS011;1496;51.404;7.232;2023-04-15T06:13:01;20.97;;;12.20;;
2972;SDS011;1496;51.404;7.232;2023-04-15T06:15:32;14.53;;;12.00;;
2972;SDS011;1496;51.404;7.232;2023-04-15T06:18:01;16.50;;;13.00;;
2972;SDS011;1496;51.404;7.232;2023-04-15T06:20:27;15.37;;;11.03;;
2972;SDS011;1496;51.404;7.232;2023-04-15T06:22:56;16.53;;;12.50;;
2972;SDS011;1496;51.404;7.232;2023-04-15T06:25:23;17.60;;;12.17;;
2972;SDS011;1496;51.404;7.232;2023-04-15T06:27:50;18.20;;;13.20;;
2972;SDS011;1496;51.404;7.232;2023-04-15T06:30:18;20.17;;;13.50;;
2972;SDS011;1496;51.404;7.232;2023-04-15T06:32:48;23.60;;;12.10;;
2972;SDS011;1496;51.404;7.232;2023-04-15T06:35:15;19.63;;;12.20;;
2972;SDS011;1496;51.404;7.232;2023-04-15T06:37:44;16.93;;;12.57;;
2972;SDS011;1496;51.404;7.232;2023-04-15T06:40:11;17.30;;;12.03;;
2972;SDS011;1496;51.404;7.232;2023-04-15T06:42:38;17.47;;;12.67;;
2972;SDS011;1496;51.404;7.232;2023-04-15T06:45:08;21.20;;;13.47;;
2972;SDS011;1496;51.404;7.232;2023-04-15T06:47:34;15.33;;;12.70;;
2972;SDS011;1496;51.404;7.232;2023-04-15T06:50:01;16.17;;;11.60;;
2972;SDS011;1496;51.404;7.232;2023-04-15T06:52:28;21.70;;;12.37;;
2972;SDS011;1496;51.404;7.232;2023-04-15T06:54:55;19.43;;;12.53;;
2972;SDS011;1496;51.404;7.232;2023-04-15T06:57:24;22.23;;;13.07;;
2972;SDS011;1496;51.404;7.232;2023-04-15T06:59:50;15.70;;;11.90;;
2972;SDS011;1496;51.404;7.232;2023-04-15T07:02:18;17.60;;;13.53;;
2972;SDS011;1496;51.404;7.232;2023-04-15T07:04:46;26.17;;;14.00;;
2972;SDS011;1496;51.404;7.232;2023-04-15T07:07:13;20.73;;;13.90;;
2972;SDS011;1496;51.404;7.232;2023-04-15T07:09:42;21.17;;;14.10;;
2972;SDS011;1496;51.404;7.232;2023-04-15T07:12:10;24.73;;;14.60;;
2972;SDS011;1496;51.404;7.232;2023-04-15T07:14:38;22.67;;;14.77;;
2972;SDS011;1496;51.404;7.232;2023-04-15T07:17:08;20.03;;;14.37;;
2972;SDS011;1496;51.404;7.232;2023-04-15T07:19:34;21.03;;;15.33;;
2972;SDS011;1496;51.404;7.232;2023-04-15T07:22:01;19.03;;;14.80;;
2972;SDS011;1496;51.404;7.232;2023-04-15T07:24:28;21.00;;;14.07;;
2972;SDS011;1496;51.404;7.232;2023-04-15T07:26:55;21.63;;;15.20;;
2972;SDS011;1496;51.404;7.232;2023-04-15T07:29:24;20.87;;;14.77;;
2972;SDS011;1496;51.404;7.232;2023-04-15T07:31:50;24.03;;;14.57;;
2972;SDS011;1496;51.404;7.232;2023-04-15T07:34:18;24.20;;;14.87;;
2972;SDS011;1496;51.404;7.232;2023-04-15T07:36:45;24.80;;;14.57;;
2972;SDS011;1496;51.404;7.232;2023-04-15T07:39:18;29.57;;;17.80;;
2972;SDS011;1496;51.404;7.232;2023-04-15T07:41:45;23.37;;;15.27;;
2972;SDS011;1496;51.404;7.232;2023-04-15T07:44:13;27.60;;;15.80;;
2972;SDS011;1496;51.404;7.232;2023-04-15T07:46:42;21.13;;;16.27;;
2972;SDS011;1496;51.404;7.232;2023-04-15T07:49:08;20.77;;;16.30;;
2972;SDS011;1496;51.404;7.232;2023-04-15T07:51:35;21.10;;;15.57;;
2972;SDS011;1496;51.404;7.232;2023-04-15T07:54:02;20.10;;;14.70;;
2972;SDS011;1496;51.404;7.232;2023-04-15T07:56:30;21.43;;;14.40;;
2972;SDS011;1496;51.404;7.232;2023-04-15T07:58:56;20.20;;;14.63;;
2972;SDS011;1496;51.404;7.232;2023-04-15T08:01:24;25.03;;;16.87;;
2972;SDS011;1496;51.404;7.232;2023-04-15T08:03:51;20.33;;;14.10;;
2972;SDS011;1496;51.404;7.232;2023-04-15T08:06:18;17.20;;;13.83;;
2972;SDS011;1496;51.404;7.232;2023-04-15T08:08:45;21.80;;;14.87;;
2972;SDS011;1496;51.404;7.232;2023-04-15T08:11:12;21.37;;;14.73;;
2972;SDS011;1496;51.404;7.232;2023-04-15T08:13:38;18.90;;;13.33;;
2972;SDS011;1496;51.404;7.232;2023-04-15T08:18:48;18.40;;;12.70;;
2972;SDS011;1496;51.404;7.232;2023-04-15T08:21:17;19.93;;;13.93;;
2972;SDS011;1496;51.404;7.232;2023-04-15T08:23:47;17.80;;;13.93;;
2972;SDS011;1496;51.404;7.232;2023-04-15T08:26:16;18.13;;;12.70;;
2972;SDS011;1496;51.404;7.232;2023-04-15T08:28:44;19.37;;;12.40;;
2972;SDS011;1496;51.404;7.232;2023-04-15T08:31:11;18.77;;;13.63;;
2972;SDS011;1496;51.404;7.232;2023-04-15T08:33:40;18.73;;;13.23;;
2972;SDS011;1496;51.404;7.232;2023-04-15T08:36:07;19.90;;;11.80;;
2972;SDS011;1496;51.404;7.232;2023-04-15T08:38:34;14.53;;;11.57;;
2972;SDS011;1496;51.404;7.232;2023-04-15T08:41:11;11.27;;;8.70;;
2972;SDS011;1496;51.404;7.232;2023-04-15T08:43:50;15.17;;;9.17;;
2972;SDS011;1496;51.404;7.232;2023-04-15T08:46:19;12.97;;;7.80;;
2972;SDS011;1496;51.404;7.232;2023-04-15T08:48:47;10.70;;;8.20;;
2972;SDS011;1496;51.404;7.232;2023-04-15T08:51:14;9.87;;;7.13;;
2972;SDS011;1496;51.404;7.232;2023-04-15T08:53:46;10.33;;;7.30;;
2972;SDS011;1496;51.404;7.232;2023-04-15T08:56:15;9.60;;;7.60;;
2972;SDS011;1496;51.404;7.232;2023-04-15T08:58:47;9.57;;;7.77;;
2972;SDS011;1496;51.404;7.232;2023-04-15T09:01:14;10.80;;;7.70;;
2972;SDS011;1496;51.404;7.232;2023-04-15T09:03:42;8.80;;;6.97;;
2972;SDS011;1496;51.404;7.232;2023-04-15T09:06:10;8.17;;;7.27;;
2972;SDS011;1496;51.404;7.232;2023-04-15T09:08:36;10.17;;;7.83;;
2972;SDS011;1496;51.404;7.232;2023-04-15T09:11:04;9.20;;;7.47;;
2972;SDS011;1496;51.404;7.232;2023-04-15T09:13:31;12.03;;;7.20;;
2972;SDS011;1496;51.404;7.232;2023-04-15T09:16:00;10.50;;;8.10;;
2972;SDS011;1496;51.404;7.232;2023-04-15T09:18:30;9.50;;;7.27;;
2972;SDS011;1496;51.404;7.232;2023-04-15T09:23:36;10.20;;;7.70;;
2972;SDS011;1496;51.404;7.232;2023-04-15T09:26:04;13.37;;;8.83;;
2972;SDS011;1496;51.404;7.232;2023-04-15T09:28:32;10.30;;;8.23;;
2972;SDS011;1496;51.404;7.232;2023-04-15T09:31:10;13.40;;;7.90;;
2972;SDS011;1496;51.404;7.232;2023-04-15T09:33:53;10.53;;;8.00;;
2972;SDS011;1496;51.404;7.232;2023-04-15T09:36:23;17.93;;;8.63;;
2972;SDS011;1496;51.404;7.232;2023-04-15T09:38:57;10.73;;;8.10;;
2972;SDS011;1496;51.404;7.232;2023-04-15T09:41:24;9.40;;;6.90;;
2972;SDS011;1496;51.404;7.232;2023-04-15T09:43:53;8.40;;;7.60;;
2972;SDS011;1496;51.404;7.232;2023-04-15T09:46:38;9.43;;;7.27;;
2972;SDS011;1496;51.404;7.232;2023-04-15T09:49:07;9.13;;;7.37;;
2972;SDS011;1496;51.404;7.232;2023-04-15T09:51:37;8.80;;;7.90;;
2972;SDS011;1496;51.404;7.232;2023-04-15T09:54:03;9.77;;;7.93;;
2972;SDS011;1496;51.404;7.232;2023-04-15T09:56:35;9.13;;;7.97;;
2972;SDS011;1496;51.404;7.232;2023-04-15T09:59:06;9.70;;;8.30;;
2972;SDS011;1496;51.404;7.232;2023-04-15T10:01:36;12.47;;;9.60;;
2972;SDS011;1496;51.404;7.232;2023-04-15T10:04:06;11.37;;;9.70;;
2972;SDS011;1496;51.404;7.232;2023-04-15T10:06:33;14.00;;;10.13;;
2972;SDS011;1496;51.404;7.232;2023-04-15T10:09:01;12.00;;;9.60;;
2972;SDS011;1496;51.404;7.232;2023-04-15T10:11:28;12.13;;;9.43;;
2972;SDS011;1496;51.404;7.232;2023-04-15T10:13:56;12.10;;;9.80;;
2972;SDS011;1496;51.404;7.232;2023-04-15T10:16:25;11.20;;;8.20;;
2972;SDS011;1496;51.404;7.232;2023-04-15T10:18:56;11.57;;;9.40;;
2972;SDS011;1496;51.404;7.232;2023-04-15T10:21:26;10.10;;;8.53;;
2972;SDS011;1496;51.404;7.232;2023-04-15T10:23:55;11.97;;;10.00;;
2972;SDS011;1496;51.404;7.232;2023-04-15T10:26:22;11.37;;;8.23;;
2972;SDS011;1496;51.404;7.232;2023-04-15T10:28:50;10.13;;;8.33;;
2972;SDS011;1496;51.404;7.232;2023-04-15T10:31:18;10.87;;;9.10;;
2972;SDS011;1496;51.404;7.232;2023-04-15T10:33:46;9.70;;;8.03;;
2972;SDS011;1496;51.404;7.232;2023-04-15T10:36:14;9.27;;;7.30;;
2972;SDS011;1496;51.404;7.232;2023-04-15T10:38:41;7.70;;;6.50;;
2972;SDS011;1496;51.404;7.232;2023-04-15T10:41:15;10.03;;;8.60;;
2972;SDS011;1496;51.404;7.232;2023-04-15T10:43:53;8.03;;;5.97;;
2972;SDS011;1496;51.404;7.232;2023-04-15T10:46:33;6.73;;;5.73;;
2972;SDS011;1496;51.404;7.232;2023-04-15T10:49:13;10.67;;;6.40;;
2972;SDS011;1496;51.404;7.232;2023-04-15T10:51:56;9.33;;;6.20;;
2972;SDS011;1496;51.404;7.232;2023-04-15T10:56:52;8.60;;;6.00;;
2972;SDS011;1496;51.404;7.232;2023-04-15T10:59:31;5.60;;;4.73;;
2972;SDS011;1496;51.404;7.232;2023-04-15T11:02:03;8.80;;;6.33;;
2972;SDS011;1496;51.404;7.232;2023-04-15T11:05:15;6.60;;;5.47;;
2972;SDS011;1496;51.404;7.232;2023-04-15T11:07:33;7.13;;;5.17;;
2972;SDS011;1496;51.404;7.232;2023-04-15T11:12:47;6.13;;;5.00;;
2972;SDS011;1496;51.404;7.232;2023-04-15T11:20:36;5.80;;;5.20;;
2972;SDS011;1496;51.404;7.232;2023-04-15T11:23:05;9.50;;;7.10;;
2972;SDS011;1496;51.404;7.232;2023-04-15T11:25:33;7.50;;;5.90;;
2972;SDS011;1496;51.404;7.232;2023-04-15T11:28:02;7.77;;;5.77;;
2972;SDS011;1496;51.404;7.232;2023-04-15T11:30:32;7.93;;;6.13;;
2972;SDS011;1496;51.404;7.232;2023-04-15T11:33:02;8.67;;;6.17;;
2972;SDS011;1496;51.404;7.232;2023-04-15T11:35:31;9.20;;;6.60;;
2972;SDS011;1496;51.404;7.232;2023-04-15T11:37:58;11.30;;;8.90;;
2972;SDS011;1496;51.404;7.232;2023-04-15T11:40:30;9.53;;;6.60;;
2972;SDS011;1496;51.404;7.232;2023-04-15T11:43:16;13.97;;;9.73;;
2972;SDS011;1496;51.404;7.232;2023-04-15T11:48:26;10.20;;;7.47;;
2972;SDS011;1496;51.404;7.232;2023-04-15T11:50:55;8.53;;;6.20;;
2972;SDS011;1496;51.404;7.232;2023-04-15T11:54:01;9.10;;;7.27;;
2972;SDS011;1496;51.404;7.232;2023-04-15T11:56:22;8.90;;;6.30;;
2972;SDS011;1496;51.404;7.232;2023-04-15T11:58:51;11.00;;;6.87;;
2972;SDS011;1496;51.404;7.232;2023-04-15T12:01:20;8.80;;;6.80;;
2972;SDS011;1496;51.404;7.232;2023-04-15T12:03:55;10.30;;;6.67;;
2972;SDS011;1496;51.404;7.232;2023-04-15T12:06:24;7.40;;;6.53;;
2972;SDS011;1496;51.404;7.232;2023-04-15T12:08:58;9.50;;;6.70;;
2972;SDS011;1496;51.404;7.232;2023-04-15T12:11:29;8.40;;;6.10;;
2972;SDS011;1496;51.404;7.232;2023-04-15T12:14:21;8.30;;;7.07;;
2972;SDS011;1496;51.404;7.232;2023-04-15T12:16:53;7.90;;;6.50;;
2972;SDS011;1496;51.404;7.232;2023-04-15T12:19:37;10.87;;;7.67;;
2972;SDS011;1496;51.404;7.232;2023-04-15T12:22:08;8.73;;;7.03;;
2972;SDS011;1496;51.404;7.232;2023-04-15T12:24:40;7.30;;;5.47;;
2972;SDS011;1496;51.404;7.232;2023-04-15T12:27:09;8.70;;;5.87;;
2972;SDS011;1496;51.404;7.232;2023-04-15T12:29:38;13.03;;;6.83;;
2972;SDS011;1496;51.404;7.232;2023-04-15T12:32:08;9.87;;;8.27;;
2972;SDS011;1496;51.404;7.232;2023-04-15T12:34:35;8.93;;;7.40;;
2972;SDS011;1496;51.404;7.232;2023-04-15T12:37:04;12.87;;;8.53;;
2972;SDS011;1496;51.404;7.232;2023-04-15T12:39:35;10.10;;;6.77;;
2972;SDS011;1496;51.404;7.232;2023-04-15T12:42:06;10.60;;;7.10;;
2972;SDS011;1496;51.404;7.232;2023-04-15T12:44:35;8.43;;;6.20;;
2972;SDS011;1496;51.404;7.232;2023-04-15T12:47:03;9.10;;;6.60;;
2972;SDS011;1496;51.404;7.232;2023-04-15T12:49:30;9.60;;;7.60;;
2972;SDS011;1496;51.404;7.232;2023-04-15T12:51:58;13.00;;;7.50;;
2972;SDS011;1496;51.404;7.232;2023-04-15T12:54:27;8.70;;;6.73;;
2972;SDS011;1496;51.404;7.232;2023-04-15T12:56:55;8.87;;;7.13;;
2972;SDS011;1496;51.404;7.232;2023-04-15T12:59:23;9.30;;;7.40;;
2972;SDS011;1496;51.404;7.232;2023-04-15T13:01:50;8.43;;;7.20;;
2972;SDS011;1496;51.404;7.232;2023-04-15T13:04:18;9.07;;;6.90;;
2972;SDS011;1496;51.404;7.232;2023-04-15T13:06:46;8.83;;;7.00;;
2972;SDS011;1496;51.404;7.232;2023-04-15T13:09:15;9.27;;;7.60;;
2972;SDS011;1496;51.404;7.232;2023-04-15T13:11:41;9.53;;;7.47;;
2972;SDS011;1496;51.404;7.232;2023-04-15T13:14:10;8.90;;;6.80;;
2972;SDS011;1496;51.404;7.232;2023-04-15T13:16:38;8.17;;;7.03;;
2972;SDS011;1496;51.404;7.232;2023-04-15T13:19:07;8.73;;;6.83;;
2972;SDS011;1496;51.404;7.232;2023-04-15T13:21:36;8.87;;;6.40;;
2972;SDS011;1496;51.404;7.232;2023-04-15T13:24:02;8.37;;;7.03;;
2972;SDS011;1496;51.404;7.232;2023-04-15T13:26:31;7.57;;;6.80;;
2972;SDS011;1496;51.404;7.232;2023-04-15T13:28:59;7.40;;;6.20;;
2972;SDS011;1496;51.404;7.232;2023-04-15T13:31:27;8.03;;;6.60;;
2972;SDS011;1496;51.404;7.232;2023-04-15T13:33:53;7.80;;;6.70;;
2972;SDS011;1496;51.404;7.232;2023-04-15T13:36:21;8.10;;;5.90;;
2972;SDS011;1496;51.404;7.232;2023-04-15T13:38:49;10.77;;;6.23;;
2972;SDS011;1496;51.404;7.232;2023-04-15T13:41:19;9.30;;;6.57;;
2972;SDS011;1496;51.404;7.232;2023-04-15T13:43:48;8.90;;;6.97;;
2972;SDS011;1496;51.404;7.232;2023-04-15T13:46:14;9.20;;;6.60;;
2972;SDS011;1496;51.404;7.232;2023-04-15T13:48:43;7.30;;;5.20;;
2972;SDS011;1496;51.404;7.232;2023-04-15T13:51:10;6.80;;;6.07;;
2972;SDS011;1496;51.404;7.232;2023-04-15T13:53:36;10.03;;;6.73;;
2972;SDS011;1496;51.404;7.232;2023-04-15T13:56:03;9.70;;;6.43;;
2972;SDS011;1496;51.404;7.232;2023-04-15T13:58:31;7.60;;;6.17;;
2972;SDS011;1496;51.404;7.232;2023-04-15T14:01:00;8.20;;;6.47;;
2972;SDS011;1496;51.404;7.232;2023-04-15T14:03:27;7.97;;;6.00;;
2972;SDS011;1496;51.404;7.232;2023-04-15T14:05:54;7.37;;;5.80;;
2972;SDS011;1496;51.404;7.232;2023-04-15T14:08:23;8.07;;;6.33;;
2972;SDS011;1496;51.404;7.232;2023-04-15T14:10:51;11.57;;;6.47;;
2972;SDS011;1496;51.404;7.232;2023-04-15T14:13:20;10.57;;;7.07;;
2972;SDS011;1496;51.404;7.232;2023-04-15T14:15:47;8.17;;;6.50;;
2972;SDS011;1496;51.404;7.232;2023-04-15T14:18:14;13.30;;;6.90;;
2972;SDS011;1496;51.404;7.232;2023-04-15T14:20:41;10.77;;;7.70;;
2972;SDS011;1496;51.404;7.232;2023-04-15T14:23:07;9.47;;;5.67;;
2972;SDS011;1496;51.404;7.232;2023-04-15T14:25:34;10.97;;;7.40;;
2972;SDS011;1496;51.404;7.232;2023-04-15T14:28:04;12.20;;;8.03;;
2972;SDS011;1496;51.404;7.232;2023-04-15T14:30:31;12.37;;;8.00;;
2972;SDS011;1496;51.404;7.232;2023-04-15T14:32:59;14.30;;;7.40;;
2972;SDS011;1496;51.404;7.232;2023-04-15T14:35:27;16.10;;;6.17;;
2972;SDS011;1496;51.404;7.232;2023-04-15T14:37:54;13.87;;;6.10;;
2972;SDS011;1496;51.404;7.232;2023-04-15T14:40:21;15.73;;;7.27;;
2972;SDS011;1496;51.404;7.232;2023-04-15T14:42:49;16.00;;;5.50;;
2972;SDS011;1496;51.404;7.232;2023-04-15T14:45:15;17.43;;;6.77;;
2972;SDS011;1496;51.404;7.232;2023-04-15T14:47:43;16.60;;;6.70;;
2972;SDS011;1496;51.404;7.232;2023-04-15T14:50:09;17.37;;;6.20;;
2972;SDS011;1496;51.404;7.232;2023-04-15T14:52:38;18.07;;;6.30;;
2972;SDS011;1496;51.404;7.232;2023-04-15T14:55:09;18.40;;;6.53;;
2972;SDS011;1496;51.404;7.232;2023-04-15T14:57:38;16.40;;;5.67;;
2972;SDS011;1496;51.404;7.232;2023-04-15T15:00:07;16.90;;;6.20;;
2972;SDS011;1496;51.404;7.232;2023-04-15T15:02:35;20.83;;;7.13;;
2972;SDS011;1496;51.404;7.232;2023-04-15T15:05:03;18.13;;;6.30;;
2972;SDS011;1496;51.404;7.232;2023-04-15T15:07:31;17.13;;;5.30;;
2972;SDS011;1496;51.404;7.232;2023-04-15T15:10:00;17.53;;;7.23;;
2972;SDS011;1496;51.404;7.232;2023-04-15T15:12:27;16.93;;;5.83;;
2972;SDS011;1496;51.404;7.232;2023-04-15T15:14:54;18.33;;;6.13;;
2972;SDS011;1496;51.404;7.232;2023-04-15T15:17:21;15.57;;;5.17;;
2972;SDS011;1496;51.404;7.232;2023-04-15T15:19:48;15.17;;;5.30;;
2972;SDS011;1496;51.404;7.232;2023-04-15T15:22:16;17.10;;;6.77;;
2972;SDS011;1496;51.404;7.232;2023-04-15T15:24:42;14.30;;;6.07;;
2972;SDS011;1496;51.404;7.232;2023-04-15T15:27:10;12.03;;;4.80;;